Time;durP1;ratioP1;P1;durP2;ratioP2;P2;SDS_P1;SDS_P2;PMS_P1;PMS_P2;Temp;Humidity;BMP_temperature;BMP_pressure;BME280_temperature;BME280_humidity;BME280_pressure;Samples;Min_cycle;Max_cycle;Signal;HPM_P1;HPM_P2
2023/06/06 00:01:21;;;;;;;5.05;2.65;;;10.40;72.70;;;;;;5094035;28;20070;-76
2023/06/06 00:03:48;;;;;;;4.80;2.35;;;10.40;66.50;;;;;;5093517;28;20131;-76
2023/06/06 00:06:20;;;;;;;3.60;2.20;;;10.40;99.90;;;;;;5125431;27;20047;-75
2023/06/06 00:08:48;;;;;;;3.88;1.83;;;10.30;94.80;;;;;;5110506;28;20035;-76
2023/06/06 00:11:13;;;;;;;1.25;1.10;;;10.30;99.90;;;;;;5093190;28;20043;-76
2023/06/06 00:13:40;;;;;;;2.58;1.85;;;10.30;99.90;;;;;;5093236;28;20501;-75
2023/06/06 00:16:06;;;;;;;3.08;1.50;;;10.30;99.90;;;;;;5091023;28;20054;-76
2023/06/06 00:18:32;;;;;;;1.60;1.40;;;10.30;99.90;;;;;;5076450;28;20130;-76
2023/06/06 00:20:58;;;;;;;2.17;1.10;;;10.30;99.90;;;;;;5110135;28;20134;-75
2023/06/06 00:23:24;;;;;;;1.75;1.17;;;10.20;99.90;;;;;;5093130;28;20039;-76
2023/06/06 00:25:52;;;;;;;3.03;1.92;;;10.20;99.90;;;;;;5092107;28;20040;-75
2023/06/06 00:28:18;;;;;;;3.17;2.20;;;10.20;99.90;;;;;;5126296;27;20040;-75
2023/06/06 00:30:43;;;;;;;2.35;1.40;;;10.20;99.90;;;;;;5109996;28;20084;-75
2023/06/06 00:33:10;;;;;;;3.08;1.60;;;10.20;99.90;;;;;;5092984;28;20043;-76
2023/06/06 00:35:36;;;;;;;2.13;1.50;;;10.10;99.90;;;;;;5110046;28;20047;-75
2023/06/06 00:38:01;;;;;;;2.08;1.40;;;10.10;99.90;;;;;;5092921;28;20494;-76
2023/06/06 00:40:27;;;;;;;5.90;2.72;;;10.10;99.90;;;;;;5092808;28;20489;-76
2023/06/06 00:42:53;;;;;;;2.95;2.10;;;10.10;57.30;;;;;;5126848;27;20039;-75
2023/06/06 00:45:18;;;;;;;2.60;1.65;;;10.10;99.90;;;;;;5108631;28;20039;-76
2023/06/06 00:47:45;;;;;;;3.53;1.80;;;10.10;99.90;;;;;;5127158;27;20082;-77
2023/06/06 00:50:12;;;;;;;3.42;1.92;;;10.10;99.90;;;;;;5092667;27;20036;-75
2023/06/06 00:52:46;;;;;;;2.70;1.20;;;10.10;99.90;;;;;;5091755;28;20116;-76
2023/06/06 00:55:17;;;;;;;1.55;1.20;;;10.10;99.90;;;;;;5091175;28;20042;-75
2023/06/06 00:57:43;;;;;;;1.75;1.27;;;10.00;99.90;;;;;;5091106;28;20043;-75
2023/06/06 01:00:10;;;;;;;1.25;1.02;;;10.00;99.90;;;;;;5091301;28;20044;-75
2023/06/06 01:02:39;;;;;;;1.00;0.80;;;9.90;99.90;;;;;;5089899;28;20398;-75
2023/06/06 01:05:06;;;;;;;0.90;0.60;;;9.90;99.90;;;;;;5086111;28;20035;-76
2023/06/06 01:07:33;;;;;;;0.65;0.65;;;9.90;99.90;;;;;;5090738;28;20086;-75
2023/06/06 01:09:58;;;;;;;;;;;9.90;99.90;;;;;;5110139;28;20095;-77
2023/06/06 01:12:50;;;;;;;1.50;1.08;;;9.80;99.90;;;;;;5109280;28;19923;-75
2023/06/06 01:15:35;;;;;;;2.15;1.00;;;9.90;99.90;;;;;;5089869;28;20096;-75
2023/06/06 01:18:02;;;;;;;1.20;0.90;;;9.80;99.90;;;;;;5087846;28;20070;-75
2023/06/06 01:20:30;;;;;;;1.05;0.80;;;9.80;99.90;;;;;;5090798;28;20051;-75
2023/06/06 01:22:57;;;;;;;1.10;0.77;;;9.80;99.90;;;;;;5071862;28;20351;-75
2023/06/06 01:25:25;;;;;;;1.02;0.70;;;9.80;99.90;;;;;;5089922;28;20441;-75
2023/06/06 01:27:53;;;;;;;0.75;0.60;;;9.70;99.90;;;;;;5089723;28;20100;-75
2023/06/06 01:30:22;;;;;;;0.73;0.60;;;9.70;99.90;;;;;;5091203;28;20035;-75
2023/06/06 01:32:56;;;;;;;0.77;0.77;;;9.70;99.90;;;;;;5090115;28;20110;-75
2023/06/06 01:35:33;;;;;;;0.95;0.80;;;9.70;99.90;;;;;;5089373;28;20513;-75
2023/06/06 01:38:07;;;;;;;1.48;0.98;;;9.70;99.90;;;;;;5089845;28;20047;-75
2023/06/06 01:40:35;;;;;;;1.08;0.90;;;9.70;99.90;;;;;;5091304;28;20061;-75
2023/06/06 01:43:03;;;;;;;1.10;0.73;;;9.70;99.90;;;;;;5091332;28;20122;-75
2023/06/06 01:45:31;;;;;;;0.65;0.60;;;9.70;99.90;;;;;;5090595;28;20051;-75
2023/06/06 01:47:58;;;;;;;1.55;0.70;;;9.70;99.90;;;;;;5125503;27;20051;-76
2023/06/06 01:50:24;;;;;;;1.08;0.80;;;9.70;99.90;;;;;;5087938;28;20046;-75
2023/06/06 01:52:54;;;;;;;0.93;0.80;;;9.70;99.90;;;;;;5090080;28;20040;-75
2023/06/06 01:55:20;;;;;;;1.73;1.10;;;9.70;99.90;;;;;;5109233;28;20519;-75
2023/06/06 01:57:47;;;;;;;1.50;1.10;;;9.70;99.90;;;;;;5091989;28;20050;-75
2023/06/06 02:00:13;;;;;;;2.20;1.45;;;9.70;99.90;;;;;;5091881;28;20027;-70
2023/06/06 02:02:39;;;;;;;3.60;1.98;;;9.70;99.90;;;;;;5091547;28;20482;-69
2023/06/06 02:05:05;;;;;;;3.03;1.65;;;9.70;99.90;;;;;;5091663;28;20039;-70
2023/06/06 02:07:34;;;;;;;2.95;2.15;;;9.70;99.90;;;;;;5107896;28;20172;-70
2023/06/06 02:10:01;;;;;;;2.45;1.50;;;9.80;99.90;;;;;;5106605;28;20538;-69
2023/06/06 02:12:26;;;;;;;;;;;9.70;99.90;;;;;;5108945;28;20042;-70
2023/06/06 02:14:54;;;;;;;1.63;1.30;;;9.80;99.90;;;;;;5074821;28;19920;-70
2023/06/06 02:17:20;;;;;;;1.83;1.20;;;9.80;99.90;;;;;;5091677;28;20046;-70
2023/06/06 02:19:46;;;;;;;1.23;1.00;;;9.80;99.90;;;;;;5073443;28;20047;-70
2023/06/06 02:22:12;;;;;;;4.88;2.42;;;9.80;99.90;;;;;;5091288;28;20036;-70
2023/06/06 02:24:40;;;;;;;2.90;1.75;;;9.80;99.90;;;;;;5090226;28;20043;-70
2023/06/06 02:27:09;;;;;;;3.13;1.73;;;9.80;99.90;;;;;;5093277;28;20051;-70
2023/06/06 02:29:35;;;;;;;3.67;2.65;;;9.90;99.90;;;;;;5123081;27;20051;-70
2023/06/06 02:32:03;;;;;;;5.53;3.05;;;9.90;99.90;;;;;;5074480;28;20043;-70
2023/06/06 02:34:29;;;;;;;2.70;2.03;;;9.90;90.00;;;;;;5090874;28;20043;-70
2023/06/06 02:36:57;;;;;;;2.92;1.90;;;10.00;99.90;;;;;;5091304;28;20079;-70
2023/06/06 02:39:23;;;;;;;7.45;3.53;;;10.00;99.90;;;;;;5072215;28;20490;-70
2023/06/06 02:41:50;;;;;;;5.90;3.78;;;10.00;99.90;;;;;;5088708;28;20048;-70
2023/06/06 02:44:17;;;;;;;4.93;2.80;;;10.00;99.90;;;;;;5093499;28;20513;-70
2023/06/06 02:46:43;;;;;;;4.50;2.55;;;10.00;99.90;;;;;;5111461;28;20469;-70
2023/06/06 02:49:09;;;;;;;4.03;1.90;;;10.10;99.90;;;;;;5092382;28;20039;-70
2023/06/06 02:51:36;;;;;;;2.40;1.40;;;10.00;99.90;;;;;;5089857;28;20077;-69
2023/06/06 02:54:02;;;;;;;1.90;1.25;;;10.10;99.90;;;;;;5077743;28;20051;-70
2023/06/06 02:56:28;;;;;;;4.60;2.40;;;10.00;99.90;;;;;;5092473;28;20067;-72
2023/06/06 02:58:54;;;;;;;5.80;3.10;;;10.00;99.90;;;;;;5093632;28;20156;-70
2023/06/06 03:01:21;;;;;;;6.88;3.40;;;10.10;99.90;;;;;;5094197;28;20495;-70
2023/06/06 03:03:47;;;;;;;5.38;3.30;;;10.10;99.90;;;;;;5090833;28;20131;-70
2023/06/06 03:06:15;;;;;;;;;;;10.10;99.90;;;;;;5093539;28;20039;-71
2023/06/06 03:08:42;;;;;;;3.08;2.20;;;10.10;99.90;;;;;;5094029;28;19919;-70
2023/06/06 03:11:08;;;;;;;2.67;2.10;;;10.10;99.90;;;;;;5092271;28;20456;-71
2023/06/06 03:13:33;;;;;;;2.72;1.80;;;10.00;99.90;;;;;;5092389;28;20137;-70
2023/06/06 03:15:59;;;;;;;3.70;2.25;;;10.10;99.90;;;;;;5128634;27;20039;-70
2023/06/06 03:18:26;;;;;;;3.17;2.03;;;10.10;99.90;;;;;;5075928;28;20035;-70
2023/06/06 03:20:51;;;;;;;;;;;10.00;99.90;;;;;;5111692;28;20043;-70
2023/06/06 03:23:18;;;;;;;2.13;1.65;;;10.10;99.90;;;;;;5092368;28;19930;-70
2023/06/06 03:25:45;;;;;;;5.13;2.97;;;10.10;99.90;;;;;;5092869;28;20080;-70
2023/06/06 03:28:13;;;;;;;3.78;2.60;;;10.10;99.90;;;;;;5092257;28;20140;-70
2023/06/06 03:30:39;;;;;;;3.25;2.40;;;10.10;99.90;;;;;;5094220;28;20554;-70
2023/06/06 03:33:08;;;;;;;6.65;3.70;;;10.10;99.90;;;;;;5093429;28;20042;-71
2023/06/06 03:35:34;;;;;;;5.63;3.30;;;10.20;99.90;;;;;;5093471;28;20144;-70
2023/06/06 03:38:01;;;;;;;;;;;10.20;99.90;;;;;;5093061;28;20054;-70
2023/06/06 03:40:26;;;;;;;6.22;2.70;;;10.20;99.90;;;;;;5093821;28;19962;-70
2023/06/06 03:42:52;;;;;;;5.78;2.85;;;10.30;99.90;;;;;;5110478;28;20411;-70
2023/06/06 03:45:20;;;;;;;6.63;3.45;;;10.20;99.90;;;;;;5092824;28;20062;-71
2023/06/06 03:47:46;;;;;;;4.57;2.28;;;10.20;99.90;;;;;;5109208;28;20035;-71
2023/06/06 03:50:11;;;;;;;2.63;2.10;;;10.30;99.90;;;;;;5128017;27;20080;-70
2023/06/06 03:52:38;;;;;;;2.65;1.90;;;10.30;99.90;;;;;;5111494;28;20104;-71
2023/06/06 03:55:04;;;;;;;3.85;2.40;;;10.30;99.90;;;;;;5109961;28;20046;-70
2023/06/06 03:57:30;;;;;;;3.83;2.42;;;10.30;99.90;;;;;;5092705;28;20040;-71
2023/06/06 03:59:55;;;;;;;5.45;3.28;;;10.40;99.90;;;;;;5093839;28;20459;-71
2023/06/06 04:02:21;;;;;;;5.47;3.10;;;10.40;99.90;;;;;;5075016;28;20039;-71
2023/06/06 04:04:50;;;;;;;4.10;2.45;;;10.40;99.90;;;;;;5092588;28;20042;-71
2023/06/06 04:07:16;;;;;;;4.72;2.65;;;10.40;99.90;;;;;;5092186;28;20089;-70
2023/06/06 04:09:43;;;;;;;6.40;2.92;;;10.40;99.90;;;;;;5126391;27;20043;-70
2023/06/06 04:12:09;;;;;;;;;;;10.50;99.90;;;;;;5093815;28;20138;-71
2023/06/06 04:14:34;;;;;;;5.30;3.25;;;10.50;99.90;;;;;;5126073;27;19923;-70
2023/06/06 04:17:01;;;;;;;3.58;2.33;;;10.50;99.90;;;;;;5092284;28;20035;-71
2023/06/06 04:19:28;;;;;;;6.53;3.53;;;10.50;99.90;;;;;;5091652;28;20101;-72
2023/06/06 04:21:54;;;;;;;;;;;10.60;99.90;;;;;;5127528;27;20089;-70
2023/06/06 04:24:20;;;;;;;4.22;2.50;;;10.60;99.90;;;;;;5126159;27;20351;-70
2023/06/06 04:26:46;;;;;;;4.97;2.50;;;10.60;99.90;;;;;;5092475;28;20078;-72
2023/06/06 04:29:13;;;;;;;;;;;10.60;99.90;;;;;;5091912;28;20110;-72
2023/06/06 04:31:40;;;;;;;3.93;2.67;;;10.70;99.90;;;;;;5091346;28;19923;-72
2023/06/06 04:34:10;;;;;;;7.43;3.58;;;10.70;99.90;;;;;;5074981;28;20297;-71
2023/06/06 04:36:38;;;;;;;7.88;3.42;;;10.80;99.90;;;;;;5092557;28;20039;-72
2023/06/06 04:39:08;;;;;;;8.18;3.13;;;10.80;99.90;;;;;;5108840;28;20031;-72
2023/06/06 04:41:34;;;;;;;7.40;3.40;;;10.80;99.90;;;;;;5091996;28;20071;-71
2023/06/06 04:44:04;;;;;;;5.03;2.95;;;10.80;99.90;;;;;;5075189;28;20071;-72
2023/06/06 04:46:29;;;;;;;4.82;2.60;;;10.90;99.90;;;;;;5090914;28;20124;-72
2023/06/06 04:48:56;;;;;;;4.18;2.45;;;10.90;99.90;;;;;;5109189;28;20039;-72
2023/06/06 04:51:33;;;;;;;3.92;2.22;;;10.90;99.90;;;;;;5092475;28;20031;-71
2023/06/06 04:54:06;;;;;;;7.15;2.90;;;11.00;99.90;;;;;;5106716;28;20044;-72
2023/06/06 04:56:32;;;;;;;7.60;2.90;;;11.00;99.90;;;;;;5092017;28;20118;-72
2023/06/06 04:59:05;;;;;;;4.47;2.60;;;11.10;99.90;;;;;;5108581;28;20054;-71
2023/06/06 05:01:41;;;;;;;7.68;2.80;;;11.10;99.90;;;;;;5091392;28;20043;-71
2023/06/06 05:04:07;;;;;;;6.05;2.88;;;11.20;99.90;;;;;;5091082;28;20044;-71
2023/06/06 05:06:34;;;;;;;6.72;3.75;;;11.30;99.90;;;;;;5123778;27;20048;-72
2023/06/06 05:09:07;;;;;;;3.88;2.47;;;11.30;99.90;;;;;;5091619;28;20043;-71
2023/06/06 05:11:33;;;;;;;5.18;2.45;;;11.30;99.90;;;;;;5090268;28;20050;-71
2023/06/06 05:13:59;;;;;;;;;;;11.40;99.90;;;;;;5091642;28;20048;-72
2023/06/06 05:16:25;;;;;;;5.97;2.80;;;11.40;99.90;;;;;;5091588;28;19923;-72
2023/06/06 05:18:51;;;;;;;5.22;3.63;;;11.50;99.90;;;;;;5074556;28;20126;-72
2023/06/06 05:21:19;;;;;;;8.13;3.28;;;11.50;99.90;;;;;;5090475;28;20031;-71
2023/06/06 05:23:44;;;;;;;9.13;3.63;;;11.60;99.90;;;;;;5090676;28;20483;-71
2023/06/06 05:26:10;;;;;;;9.10;3.97;;;11.60;99.90;;;;;;5091050;28;20085;-71
2023/06/06 05:28:38;;;;;;;7.63;3.78;;;11.70;99.90;;;;;;5124705;27;20501;-73
2023/06/06 05:31:07;;;;;;;9.30;4.30;;;11.70;99.90;;;;;;5072885;28;20039;-71
2023/06/06 05:33:33;;;;;;;10.57;4.63;;;11.80;99.90;;;;;;5108263;28;20039;-71
2023/06/06 05:36:00;;;;;;;;;;;11.80;99.90;;;;;;5092244;28;20517;-71
2023/06/06 05:38:26;;;;;;;6.68;3.20;;;11.80;99.90;;;;;;5074191;28;19916;-72
2023/06/06 05:40:52;;;;;;;6.85;3.28;;;11.90;99.90;;;;;;5089230;28;20475;-71
2023/06/06 05:43:18;;;;;;;3.25;2.40;;;12.00;99.90;;;;;;5091130;28;20043;-72
2023/06/06 05:45:43;;;;;;;5.70;3.22;;;12.20;99.90;;;;;;5109309;28;20116;-71
2023/06/06 05:48:09;;;;;;;3.90;2.30;;;12.30;99.90;;;;;;5089512;28;20122;-71
2023/06/06 05:50:35;;;;;;;6.57;2.80;;;12.60;99.90;;;;;;5089439;28;20390;-71
2023/06/06 05:53:02;;;;;;;4.50;2.30;;;12.90;93.40;;;;;;5089859;28;20039;-72
2023/06/06 05:55:33;;;;;;;4.28;2.80;;;13.10;99.90;;;;;;5091546;28;20047;-72
2023/06/06 05:58:00;;;;;;;6.00;3.28;;;13.10;90.60;;;;;;5105661;28;20062;-70
2023/06/06 06:00:27;;;;;;;5.65;2.97;;;13.10;1.00;;;;;;5070887;28;20068;-70
2023/06/06 06:02:56;;;;;;;7.13;3.30;;;13.00;99.90;;;;;;5085589;28;20047;-70
2023/06/06 06:05:22;;;;;;;7.82;3.92;;;13.00;1.00;;;;;;5124751;28;20043;-70
2023/06/06 06:07:49;;;;;;;6.47;3.20;;;13.10;99.90;;;;;;5088440;28;20048;-71
2023/06/06 06:10:16;;;;;;;7.40;3.10;;;13.30;70.10;;;;;;5086146;28;20515;-71
2023/06/06 06:12:44;;;;;;;3.88;2.70;;;13.40;1.00;;;;;;5089994;28;20047;-70
2023/06/06 06:15:11;;;;;;;4.72;2.80;;;13.40;1.00;;;;;;5089987;28;20181;-70
2023/06/06 06:17:36;;;;;;;;;;;13.40;27.40;;;;;;5091799;28;20036;-70
2023/06/06 06:20:07;;;;;;;9.73;3.20;;;13.40;99.90;;;;;;5093154;27;19919;-70
2023/06/06 06:22:34;;;;;;;6.93;3.10;;;13.50;1.00;;;;;;5078583;27;20062;-70
2023/06/06 06:25:00;;;;;;;7.28;2.40;;;13.40;1.00;;;;;;5093413;28;20486;-70
2023/06/06 06:27:25;;;;;;;5.70;2.95;;;13.50;97.30;;;;;;5111538;28;20048;-70
2023/06/06 06:29:51;;;;;;;6.15;3.17;;;13.60;99.90;;;;;;5091287;28;20027;-70
2023/06/06 06:32:17;;;;;;;7.78;3.00;;;13.70;1.00;;;;;;5076406;28;20031;-72
2023/06/06 06:34:43;;;;;;;7.97;3.28;;;13.80;1.00;;;;;;5092611;28;20501;-71
2023/06/06 06:37:09;;;;;;;6.07;2.47;;;13.80;99.90;;;;;;5094689;28;20088;-72
2023/06/06 06:39:35;;;;;;;3.65;2.30;;;13.90;99.90;;;;;;5113214;28;20114;-72
2023/06/06 06:42:01;;;;;;;5.75;2.70;;;14.00;99.90;;;;;;5094976;28;20154;-72
2023/06/06 06:44:26;;;;;;;5.55;2.63;;;14.00;99.90;;;;;;5095241;28;20044;-72
2023/06/06 06:46:52;;;;;;;4.35;2.30;;;13.90;99.90;;;;;;5110034;28;20104;-71
2023/06/06 06:49:18;;;;;;;4.43;2.50;;;14.00;99.90;;;;;;5126014;27;20573;-71
2023/06/06 06:51:44;;;;;;;6.68;3.25;;;14.10;99.90;;;;;;5092291;28;20039;-70
2023/06/06 06:54:13;;;;;;;3.60;2.42;;;14.10;99.90;;;;;;5092668;28;20039;-71
2023/06/06 06:56:42;;;;;;;6.00;2.70;;;14.20;99.90;;;;;;5090760;28;20048;-72
2023/06/06 06:59:09;;;;;;;7.32;2.80;;;14.40;99.90;;;;;;5092148;28;20487;-72
2023/06/06 07:01:37;;;;;;;4.10;2.30;;;14.40;99.90;;;;;;5125577;27;20136;-72
2023/06/06 07:04:05;;;;;;;3.70;2.00;;;14.50;99.90;;;;;;5094696;28;20047;-78
2023/06/06 07:06:33;;;;;;;7.20;3.10;;;14.70;99.90;;;;;;5110084;28;20050;-78
2023/06/06 07:09:00;;;;;;;7.22;2.70;;;14.70;94.00;;;;;;5111054;28;20764;-78
2023/06/06 07:11:27;;;;;;;4.10;2.40;;;14.60;99.90;;;;;;5094804;28;20038;-78
2023/06/06 07:13:52;;;;;;;4.15;2.40;;;14.60;1.00;;;;;;5109399;28;20052;-78
2023/06/06 07:16:22;;;;;;;5.47;3.05;;;14.80;99.90;;;;;;5093155;28;20046;-79
2023/06/06 07:18:49;;;;;;;6.10;2.60;;;14.80;99.90;;;;;;5093911;28;20483;-78
2023/06/06 07:21:15;;;;;;;3.90;2.47;;;14.80;99.90;;;;;;5092403;28;20039;-78
2023/06/06 07:23:41;;;;;;;7.13;3.05;;;14.70;99.90;;;;;;5090396;28;20125;-78
2023/06/06 07:26:08;;;;;;;4.35;2.22;;;14.70;99.90;;;;;;5090464;28;20047;-78
2023/06/06 07:28:33;;;;;;;4.80;2.67;;;14.80;99.90;;;;;;5107955;28;20137;-78
2023/06/06 07:31:00;;;;;;;5.68;2.58;;;15.00;99.90;;;;;;5105568;28;20123;-78
2023/06/06 07:33:25;;;;;;;;;;;15.00;99.90;;;;;;5093732;28;20558;-78
2023/06/06 07:35:51;;;;;;;8.85;2.97;;;15.20;99.90;;;;;;5110819;28;20019;-77
2023/06/06 07:38:16;;;;;;;7.32;2.97;;;15.30;99.90;;;;;;5111594;28;20036;-78
2023/06/06 07:40:42;;;;;;;4.22;2.47;;;15.30;98.40;;;;;;5092585;28;20122;-77
2023/06/06 07:43:08;;;;;;;4.70;2.75;;;15.40;99.90;;;;;;5093051;28;20055;-78
2023/06/06 07:45:33;;;;;;;5.32;3.03;;;15.50;99.90;;;;;;5091602;28;20051;-78
2023/06/06 07:47:59;;;;;;;6.93;2.95;;;15.50;62.10;;;;;;5110468;28;20036;-78
2023/06/06 07:50:25;;;;;;;5.65;3.63;;;15.40;68.80;;;;;;5093433;28;20411;-78
2023/06/06 07:52:51;;;;;;;;;;;15.30;3.60;;;;;;5076872;28;20043;-77
2023/06/06 07:55:17;;;;;;;4.10;2.40;;;15.40;99.90;;;;;;5091859;28;19927;-78
2023/06/06 07:57:45;;;;;;;4.80;2.92;;;15.50;99.90;;;;;;5092541;28;20414;-77
2023/06/06 08:00:12;;;;;;;5.45;2.90;;;15.70;99.90;;;;;;5073861;28;20071;-77
2023/06/06 08:02:41;;;;;;;5.47;2.90;;;15.80;83.20;;;;;;5092613;28;20094;-77
2023/06/06 08:05:09;;;;;;;6.32;3.05;;;15.80;90.60;;;;;;5091114;28;20093;-78
2023/06/06 08:07:36;;;;;;;5.93;2.92;;;15.80;99.90;;;;;;5088662;28;20063;-78
2023/06/06 08:10:03;;;;;;;6.00;3.28;;;15.90;52.00;;;;;;5089365;28;20849;-78
2023/06/06 08:12:29;;;;;;;4.82;2.47;;;16.00;1.00;;;;;;5089467;28;20043;-77
2023/06/06 08:14:54;;;;;;;5.20;2.72;;;16.30;1.00;;;;;;5092329;28;20038;-77
2023/06/06 08:17:20;;;;;;;5.25;2.72;;;16.50;1.00;;;;;;5094869;28;20065;-79
2023/06/06 08:19:46;;;;;;;4.68;2.35;;;16.80;99.90;;;;;;5089043;28;20036;-77
2023/06/06 08:22:11;;;;;;;5.57;2.70;;;16.80;99.90;;;;;;5088589;28;20114;-78
2023/06/06 08:24:37;;;;;;;7.75;3.30;;;16.90;99.90;;;;;;5092028;28;20047;-77
2023/06/06 08:27:03;;;;;;;7.18;3.28;;;16.70;99.90;;;;;;5074297;28;20699;-76
2023/06/06 08:29:29;;;;;;;;;;;16.60;99.90;;;;;;5088628;28;20047;-77
2023/06/06 08:31:54;;;;;;;3.83;2.20;;;16.60;99.90;;;;;;5075120;28;19920;-77
2023/06/06 08:34:21;;;;;;;5.03;2.88;;;16.80;99.90;;;;;;5088541;28;20032;-78
2023/06/06 08:36:48;;;;;;;4.68;2.60;;;17.10;99.90;;;;;;5056229;28;20055;-78
2023/06/06 08:39:15;;;;;;;6.88;2.88;;;17.20;99.90;;;;;;5121207;27;20192;-78
2023/06/06 08:41:53;;;;;;;6.18;2.78;;;17.40;99.90;;;;;;5125702;27;20039;-77
2023/06/06 08:44:21;;;;;;;3.80;2.30;;;17.50;99.90;;;;;;5087850;28;20082;-78
2023/06/06 08:46:50;;;;;;;3.65;2.28;;;17.70;99.90;;;;;;5106083;28;20044;-78
2023/06/06 08:49:18;;;;;;;3.40;2.40;;;18.00;99.90;;;;;;5087760;28;20062;-78
2023/06/06 08:51:48;;;;;;;3.83;2.53;;;18.00;99.90;;;;;;5105687;28;20032;-78
2023/06/06 08:54:14;;;;;;;4.82;2.42;;;17.80;99.90;;;;;;5090541;28;20043;-78
2023/06/06 08:56:44;;;;;;;;;;;18.00;99.90;;;;;;5110173;28;20136;-77
2023/06/06 08:59:14;;;;;;;5.55;2.80;;;17.70;99.90;;;;;;5108759;28;19976;-77
2023/06/06 09:01:40;;;;;;;5.60;2.60;;;17.50;95.00;;;;;;5090427;28;20559;-78
2023/06/06 09:04:07;;;;;;;4.78;3.00;;;17.40;99.90;;;;;;5074500;28;20047;-79
2023/06/06 09:06:34;;;;;;;3.80;2.28;;;17.40;99.90;;;;;;5108104;28;20044;-78
2023/06/06 09:09:01;;;;;;;5.85;2.80;;;17.60;99.90;;;;;;5091863;28;20126;-78
2023/06/06 09:11:27;;;;;;;7.15;3.33;;;17.80;99.90;;;;;;5123425;27;20050;-78
2023/06/06 09:13:53;;;;;;;;;;;17.80;95.30;;;;;;5091235;28;20051;-78
2023/06/06 09:16:19;;;;;;;4.88;2.40;;;18.00;99.90;;;;;;5090018;28;19924;-78
2023/06/06 09:18:49;;;;;;;6.05;3.25;;;18.10;99.90;;;;;;5091169;28;20079;-78
2023/06/06 09:21:15;;;;;;;4.70;3.03;;;18.00;64.40;;;;;;5087540;28;20078;-75
2023/06/06 09:23:40;;;;;;;;;;;17.90;99.90;;;;;;5088571;28;20482;-77
2023/06/06 09:26:19;;;;;;;6.32;3.15;;;18.10;99.90;;;;;;5123484;27;20370;-78
2023/06/06 09:28:44;;;;;;;4.72;3.03;;;18.00;46.10;;;;;;5082503;28;20133;-77
2023/06/06 09:31:29;;;;;;;;;;;17.90;91.30;;;;;;5091278;28;20043;-76
2023/06/06 09:33:57;;;;;;;5.32;3.00;;;18.10;89.10;;;;;;5121565;27;19972;-78
2023/06/06 09:36:27;;;;;;;5.97;3.10;;;18.30;95.10;;;;;;5122333;27;20053;-76
2023/06/06 09:38:55;;;;;;;4.68;3.30;;;18.50;80.10;;;;;;5085531;28;20035;-76
2023/06/06 09:41:25;;;;;;;7.32;3.65;;;18.60;73.10;;;;;;5088790;28;20077;-75
2023/06/06 09:43:51;;;;;;;5.30;3.08;;;18.60;53.30;;;;;;5093377;28;20035;-78
2023/06/06 09:46:18;;;;;;;;;;;18.90;96.50;;;;;;5082089;28;20063;-76
2023/06/06 09:48:56;;;;;;;5.40;3.33;;;18.80;1.00;;;;;;5085046;28;20388;-76
2023/06/06 09:51:21;;;;;;;7.53;3.70;;;18.80;38.90;;;;;;5084083;28;20036;-76
2023/06/06 09:53:50;;;;;;;;;;;18.80;34.70;;;;;;5089739;28;20130;-76
2023/06/06 09:56:19;;;;;;;6.75;3.28;;;19.00;8.70;;;;;;5083123;28;19924;-76
2023/06/06 09:58:46;;;;;;;5.45;3.10;;;18.80;18.30;;;;;;5086152;28;20048;-76
2023/06/06 10:01:13;;;;;;;5.55;3.00;;;19.00;55.90;;;;;;5086704;28;20098;-77
2023/06/06 10:03:40;;;;;;;6.03;2.95;;;19.30;4.30;;;;;;5083166;28;20403;-76
2023/06/06 10:06:07;;;;;;;3.33;2.50;;;19.50;19.70;;;;;;5081945;28;20052;-76
2023/06/06 10:08:34;;;;;;;4.78;3.10;;;19.80;1.00;;;;;;5084916;28;20411;-76
2023/06/06 10:11:02;;;;;;;3.35;2.50;;;19.80;1.00;;;;;;5086859;28;20040;-72
2023/06/06 10:13:28;;;;;;;4.22;3.08;;;19.90;1.00;;;;;;5064044;28;20096;-76
2023/06/06 10:15:55;;;;;;;4.07;2.83;;;19.70;1.00;;;;;;5119768;28;20051;-76
2023/06/06 10:18:21;;;;;;;5.28;3.63;;;19.50;1.00;;;;;;5087749;28;20062;-76
2023/06/06 10:20:47;;;;;;;;;;;19.40;1.00;;;;;;5086390;28;20417;-77
2023/06/06 10:23:13;;;;;;;7.65;3.40;;;19.30;1.00;;;;;;5066026;28;20004;-76
2023/06/06 10:25:40;;;;;;;;;;;19.00;1.00;;;;;;5064717;28;20424;-77
2023/06/06 10:28:34;;;;;;;5.45;2.85;;;19.10;79.70;;;;;;5085315;28;19943;-76
2023/06/06 10:31:38;;;;;;;6.32;3.30;;;19.20;41.60;;;;;;5085979;28;20110;-76
2023/06/06 10:34:08;;;;;;;6.93;2.85;;;19.40;1.00;;;;;;5031678;28;20044;-76
2023/06/06 10:36:40;;;;;;;8.38;3.22;;;19.50;1.00;;;;;;5081675;28;20040;-71
2023/06/06 10:39:22;;;;;;;6.22;3.13;;;19.60;1.00;;;;;;5064141;28;20475;-71
2023/06/06 10:42:06;;;;;;;4.18;3.00;;;19.60;1.00;;;;;;5079656;28;20044;-71
2023/06/06 10:44:35;;;;;;;5.75;3.70;;;19.60;1.00;;;;;;5086201;28;20368;-71
2023/06/06 10:47:23;;;;;;;5.55;3.45;;;19.50;1.00;;;;;;5084798;28;20040;-71
2023/06/06 10:50:08;;;;;;;6.57;3.80;;;19.60;1.00;;;;;;5087004;28;20044;-71
2023/06/06 10:52:50;;;;;;;6.15;3.00;;;19.50;99.90;;;;;;5087678;28;20084;-76
2023/06/06 10:55:25;;;;;;;5.72;3.10;;;19.60;1.00;;;;;;5120184;28;20040;-76
2023/06/06 10:58:04;;;;;;;5.03;3.38;;;19.50;1.00;;;;;;5083915;28;20040;-76
2023/06/06 11:00:34;;;;;;;6.20;3.38;;;19.20;1.00;;;;;;5086940;28;20075;-76
2023/06/06 11:03:07;;;;;;;7.60;3.30;;;19.30;1.00;;;;;;5052272;28;20062;-76
2023/06/06 11:05:53;;;;;;;5.75;3.80;;;19.40;1.00;;;;;;5092834;28;20040;-77
2023/06/06 11:08:30;;;;;;;4.63;3.00;;;19.40;1.00;;;;;;5087698;28;20810;-76
2023/06/06 11:11:17;;;;;;;8.77;3.20;;;19.50;1.00;;;;;;5074278;28;20044;-76
2023/06/06 11:13:53;;;;;;;7.72;3.35;;;19.50;1.00;;;;;;5073179;28;20044;-76
2023/06/06 11:16:37;;;;;;;7.97;3.70;;;19.60;1.00;;;;;;5087526;28;20044;-75
2023/06/06 11:19:03;;;;;;;5.15;3.30;;;19.70;1.00;;;;;;5067085;28;20540;-78
2023/06/06 11:21:31;;;;;;;5.05;3.08;;;19.90;1.00;;;;;;5085976;28;20350;-77
2023/06/06 11:23:58;;;;;;;7.72;3.65;;;20.10;1.00;;;;;;5089227;28;20076;-77
2023/06/06 11:26:27;;;;;;;6.15;3.83;;;19.80;1.00;;;;;;5070139;28;20040;-78
2023/06/06 11:28:55;;;;;;;7.63;3.63;;;19.80;1.00;;;;;;5071549;28;20036;-78
2023/06/06 11:31:23;;;;;;;7.60;3.60;;;19.50;1.00;;;;;;5089723;28;20055;-76
2023/06/06 11:33:49;;;;;;;9.98;3.90;;;19.60;1.00;;;;;;5089435;28;20044;-76
2023/06/06 11:36:15;;;;;;;;;;;19.70;1.00;;;;;;5088924;28;20195;-78
2023/06/06 11:38:41;;;;;;;6.40;3.45;;;19.80;1.00;;;;;;5092671;28;20335;-76
2023/06/06 11:41:08;;;;;;;5.22;3.08;;;19.80;99.90;;;;;;5085295;28;20442;-76
2023/06/06 11:43:34;;;;;;;5.25;2.83;;;19.90;1.00;;;;;;5087954;28;20202;-76
2023/06/06 11:46:05;;;;;;;5.00;3.00;;;19.90;1.00;;;;;;5091380;28;20051;-76
2023/06/06 11:48:30;;;;;;;7.45;3.33;;;20.10;1.00;;;;;;5085991;28;20051;-77
2023/06/06 11:50:56;;;;;;;;;;;20.30;99.90;;;;;;5073810;28;20040;-76
2023/06/06 11:53:35;;;;;;;7.40;3.40;;;20.00;1.00;;;;;;5089799;28;19917;-76
2023/06/06 11:56:01;;;;;;;6.32;2.88;;;20.20;99.90;;;;;;5125920;27;20384;-77
2023/06/06 11:58:29;;;;;;;;;;;20.40;99.90;;;;;;5093546;28;20046;-77
2023/06/06 12:00:57;;;;;;;7.00;3.22;;;20.20;99.90;;;;;;5091731;28;19972;-77
2023/06/06 12:03:24;;;;;;;5.90;3.40;;;20.30;99.90;;;;;;5090618;28;20402;-77
2023/06/06 12:05:59;;;;;;;4.10;2.83;;;20.20;99.90;;;;;;5092043;28;20051;-77
2023/06/06 12:08:25;;;;;;;7.13;3.47;;;20.00;1.00;;;;;;5123011;27;20482;-77
2023/06/06 12:10:51;;;;;;;7.10;3.30;;;20.00;99.90;;;;;;5091731;28;20044;-77
2023/06/06 12:13:33;;;;;;;;;;;20.00;99.90;;;;;;5093258;28;20058;-77
2023/06/06 12:15:58;;;;;;;6.72;3.50;;;20.10;99.90;;;;;;5090777;28;20424;-77
2023/06/06 12:18:25;;;;;;;;;;;19.70;99.90;;;;;;5091777;28;20047;-77
2023/06/06 12:20:51;;;;;;;7.70;3.58;;;19.60;1.00;;;;;;5090921;28;20018;-77
2023/06/06 12:23:30;;;;;;;8.38;4.00;;;19.60;1.00;;;;;;5082949;28;20093;-76
2023/06/06 12:25:57;;;;;;;6.63;3.55;;;19.50;99.90;;;;;;5120148;27;20050;-77
2023/06/06 12:28:23;;;;;;;8.30;3.22;;;19.50;99.90;;;;;;5068954;28;20164;-76
2023/06/06 12:30:51;;;;;;;5.55;2.80;;;19.50;99.90;;;;;;5095934;28;20087;-78
2023/06/06 12:33:18;;;;;;;17.33;5.10;;;19.50;1.00;;;;;;5084968;28;20134;-76
2023/06/06 12:35:45;;;;;;;6.80;3.28;;;19.70;1.00;;;;;;5093812;28;20040;-76
2023/06/06 12:38:21;;;;;;;6.00;2.88;;;19.70;99.90;;;;;;5093346;28;20540;-77
2023/06/06 12:40:57;;;;;;;5.65;2.70;;;19.80;99.90;;;;;;5087779;28;20050;-76
2023/06/06 12:43:23;;;;;;;6.97;3.20;;;19.80;99.90;;;;;;5076610;28;20062;-77
2023/06/06 12:45:48;;;;;;;;;;;19.70;99.90;;;;;;5101741;27;20426;-76
2023/06/06 12:48:15;;;;;;;9.65;3.00;;;19.80;99.90;;;;;;5111320;27;19920;-76
2023/06/06 12:50:43;;;;;;;6.88;2.97;;;19.90;1.00;;;;;;5077475;27;20107;-76
2023/06/06 12:53:12;;;;;;;5.03;2.78;;;20.00;1.00;;;;;;5088941;28;20043;-76
2023/06/06 12:55:37;;;;;;;7.80;3.13;;;20.20;99.90;;;;;;5092975;28;20044;-76
2023/06/06 12:58:03;;;;;;;;;;;19.90;99.90;;;;;;5060374;28;20058;-76
2023/06/06 13:00:30;;;;;;;6.38;2.72;;;19.60;99.90;;;;;;5109581;28;19988;-77
2023/06/06 13:02:55;;;;;;;4.38;2.50;;;19.80;1.00;;;;;;5077655;27;20478;-76